createdAt,value
2023-03-04T00:01:18.017Z,54.12
2023-03-04T00:04:04.214Z,54.39
2023-03-04T00:06:50.177Z,54.38
2023-03-04T00:09:36.494Z,54.65
2023-03-04T00:12:22.358Z,54.40
2023-03-04T00:15:08.736Z,54.57
2023-03-04T00:17:54.673Z,54.27
2023-03-04T00:20:40.959Z,54.49
2023-03-04T00:23:27.394Z,54.09
2023-03-04T00:26:13.627Z,54.25
2023-03-04T00:29:01.768Z,54.32
2023-03-04T00:31:47.704Z,54.08
2023-03-04T00:34:33.512Z,54.42
2023-03-04T00:37:19.386Z,54.72
2023-03-04T00:40:06.126Z,54.65
2023-03-04T00:42:52.437Z,54.45
2023-03-04T00:45:38.277Z,54.54
2023-03-04T00:48:24.060Z,54.76
2023-03-04T00:51:09.976Z,54.81
2023-03-04T00:53:55.678Z,54.36
2023-03-04T00:56:41.763Z,54.75
2023-03-04T00:59:27.719Z,54.73
2023-03-04T01:02:13.641Z,54.82
2023-03-04T01:04:59.586Z,54.67
2023-03-04T01:07:45.488Z,54.42
2023-03-04T01:10:31.823Z,54.39
2023-03-04T01:13:18.506Z,54.58
2023-03-04T01:16:05.225Z,54.55
2023-03-04T01:18:51.374Z,54.73
2023-03-04T01:21:37.230Z,54.50
2023-03-04T01:24:23.037Z,54.24
2023-03-04T01:27:09.001Z,54.79
2023-03-04T01:29:54.878Z,54.37
2023-03-04T01:32:41.696Z,54.49
2023-03-04T01:35:28.647Z,54.44
2023-03-04T01:38:16.580Z,54.77
2023-03-04T01:41:02.555Z,54.87
2023-03-04T01:43:48.662Z,54.66
2023-03-04T01:46:34.636Z,55.15
2023-03-04T01:49:20.988Z,54.94
2023-03-04T01:52:11.470Z,54.77
2023-03-04T01:54:57.793Z,54.93
2023-03-04T01:57:43.481Z,55.00
2023-03-04T02:00:32.468Z,55.00
2023-03-04T02:03:22.225Z,54.88
2023-03-04T02:06:08.650Z,54.96
2023-03-04T02:08:54.400Z,54.98
2023-03-04T02:11:40.415Z,54.97
2023-03-04T02:14:26.401Z,54.91
2023-03-04T02:17:13.254Z,55.02
2023-03-04T02:20:25.935Z,54.90
2023-03-04T02:23:17.906Z,54.89
2023-03-04T02:26:26.074Z,55.03
2023-03-04T02:29:14.302Z,54.92
2023-03-04T02:32:00.356Z,54.81
2023-03-04T02:34:48.927Z,54.70
2023-03-04T02:37:34.611Z,54.83
2023-03-04T02:40:28.311Z,54.76
2023-03-04T02:43:14.697Z,54.75
2023-03-04T02:46:00.804Z,54.93
2023-03-04T02:48:47.082Z,55.10
2023-03-04T02:51:32.937Z,55.27
2023-03-04T02:54:21.057Z,55.10
2023-03-04T02:57:09.587Z,54.87
2023-03-04T02:59:57.782Z,54.79
2023-03-04T03:02:46.675Z,55.20
2023-03-04T03:05:35.310Z,54.82
2023-03-04T03:08:22.219Z,55.17
2023-03-04T03:11:09.412Z,54.96
2023-03-04T03:13:57.189Z,55.02
2023-03-04T03:16:43.582Z,55.25
2023-03-04T03:19:30.404Z,55.03
2023-03-04T03:22:16.995Z,55.26
2023-03-04T03:25:03.566Z,55.18
2023-03-04T03:27:49.409Z,55.13
2023-03-04T03:30:36.234Z,55.51
2023-03-04T03:33:24.807Z,54.98
2023-03-04T03:36:10.598Z,55.05
2023-03-04T03:38:57.840Z,55.06
2023-03-04T03:41:44.050Z,54.83
2023-03-04T03:44:30.148Z,55.20
2023-03-04T03:47:21.089Z,54.80
2023-03-04T03:50:07.977Z,55.29
2023-03-04T03:52:54.122Z,54.89
2023-03-04T03:55:40.014Z,54.78
2023-03-04T03:58:27.057Z,54.95
2023-03-04T04:01:13.250Z,55.22
2023-03-04T04:03:59.483Z,55.09
2023-03-04T04:06:45.386Z,55.25
2023-03-04T04:09:31.179Z,54.98
2023-03-04T04:12:18.981Z,54.76
2023-03-04T04:15:05.419Z,54.79
2023-03-04T04:17:52.009Z,54.76
2023-03-04T04:20:38.109Z,55.12
2023-03-04T04:23:24.028Z,54.67
2023-03-04T04:26:09.762Z,55.07
2023-03-04T04:28:55.659Z,54.43
2023-03-04T04:31:41.817Z,54.57
2023-03-04T04:34:28.060Z,54.64
2023-03-04T04:37:14.029Z,54.43
2023-03-04T04:39:59.839Z,54.52
2023-03-04T04:42:45.625Z,54.66
2023-03-04T04:45:31.566Z,54.71
2023-03-04T04:48:17.387Z,54.23
2023-03-04T04:51:03.283Z,54.40
2023-03-04T04:53:49.285Z,54.39
2023-03-04T04:56:35.325Z,54.17
2023-03-04T04:59:21.434Z,53.92
2023-03-04T05:02:07.357Z,54.41
2023-03-04T05:04:53.226Z,54.26
2023-03-04T05:07:40.548Z,54.21
2023-03-04T05:10:26.670Z,54.31
2023-03-04T05:13:12.625Z,54.38
2023-03-04T05:15:58.856Z,53.99
2023-03-04T05:18:45.368Z,54.14
2023-03-04T05:21:31.201Z,54.13
2023-03-04T05:24:17.155Z,54.08
2023-03-04T05:27:03.227Z,53.97
2023-03-04T05:29:50.321Z,53.71
2023-03-04T05:32:36.183Z,54.33
2023-03-04T05:35:22.174Z,54.24
2023-03-04T05:38:10.320Z,54.01
2023-03-04T05:41:01.435Z,54.21
2023-03-04T05:43:47.619Z,54.26
2023-03-04T05:46:34.017Z,53.76
2023-03-04T05:49:20.533Z,54.04
2023-03-04T05:52:06.581Z,53.81
2023-03-04T05:54:52.399Z,53.58
2023-03-04T05:57:38.286Z,53.84
2023-03-04T06:00:24.706Z,53.44
2023-03-04T06:03:22.706Z,53.74
2023-03-04T06:06:09.663Z,53.70
2023-03-04T06:08:55.781Z,53.40
2023-03-04T06:11:41.910Z,53.48
2023-03-04T06:14:27.883Z,53.47
2023-03-04T06:17:14.009Z,53.19
2023-03-04T06:20:00.103Z,53.69
2023-03-04T06:22:46.190Z,53.25
2023-03-04T06:25:32.405Z,53.41
2023-03-04T06:28:18.210Z,53.36
2023-03-04T06:31:04.218Z,53.54
2023-03-04T06:33:50.058Z,53.10
2023-03-04T06:36:35.816Z,53.31
2023-03-04T06:39:21.873Z,53.11
2023-03-04T06:42:08.697Z,53.01
2023-03-04T06:44:54.488Z,53.16
2023-03-04T06:47:40.636Z,52.99
2023-03-04T06:50:26.690Z,52.66
2023-03-04T06:53:12.556Z,53.17
2023-03-04T06:55:58.472Z,53.15
2023-03-04T06:58:44.985Z,53.19
2023-03-04T07:01:31.236Z,53.19
2023-03-04T07:04:17.244Z,53.02
2023-03-04T07:07:02.940Z,52.92
2023-03-04T07:09:48.862Z,52.85
2023-03-04T07:12:34.610Z,52.56
2023-03-04T07:15:20.444Z,52.69
2023-03-04T07:18:06.433Z,52.93
2023-03-04T07:20:53.265Z,52.64
2023-03-04T07:23:39.887Z,52.79
2023-03-04T07:26:26.100Z,53.18
2023-03-04T07:29:13.161Z,53.13
2023-03-04T07:31:59.626Z,52.75
2023-03-04T07:34:45.930Z,53.12
2023-03-04T07:37:31.940Z,52.73
2023-03-04T07:40:17.898Z,53.43
2023-03-04T07:43:04.757Z,52.74
2023-03-04T07:45:51.075Z,52.74
2023-03-04T07:48:37.564Z,52.74
2023-03-04T07:51:25.688Z,52.84
2023-03-04T07:54:11.760Z,52.86
2023-03-04T07:56:57.800Z,52.56
2023-03-04T07:59:43.743Z,52.30
2023-03-04T08:02:29.574Z,52.33
2023-03-04T08:05:15.591Z,52.68
2023-03-04T08:08:01.788Z,52.46
2023-03-04T08:10:47.676Z,52.67
2023-03-04T08:13:34.493Z,52.22
2023-03-04T08:16:22.194Z,52.55
2023-03-04T08:19:08.233Z,52.27
2023-03-04T08:21:56.344Z,51.94
2023-03-04T08:24:42.297Z,52.15
2023-03-04T08:27:28.475Z,51.82
2023-03-04T08:30:14.464Z,52.54
2023-03-04T08:33:02.894Z,52.43
2023-03-04T08:35:49.245Z,52.14
2023-03-04T08:38:35.638Z,52.00
2023-03-04T08:41:22.847Z,51.56
2023-03-04T08:44:10.403Z,51.74
2023-03-04T08:46:56.671Z,51.64
2023-03-04T08:49:42.702Z,51.77
2023-03-04T08:52:30.443Z,52.28
2023-03-04T08:55:16.250Z,51.81
2023-03-04T08:58:01.954Z,51.94
2023-03-04T09:00:49.419Z,51.44
2023-03-04T09:03:35.811Z,51.58
2023-03-04T09:06:21.995Z,51.12
2023-03-04T09:09:08.007Z,51.43
2023-03-04T09:11:53.959Z,51.45
2023-03-04T09:14:39.716Z,51.63
2023-03-04T09:17:25.607Z,51.43
2023-03-04T09:20:13.184Z,51.75
2023-03-04T09:22:59.152Z,51.42
2023-03-04T09:25:47.498Z,51.22
2023-03-04T09:28:33.384Z,51.31
2023-03-04T09:31:19.882Z,51.75
2023-03-04T09:34:05.740Z,51.37
2023-03-04T09:36:51.660Z,51.82
2023-03-04T09:39:37.518Z,51.68
2023-03-04T09:42:27.709Z,51.43
2023-03-04T09:45:17.767Z,51.36
2023-03-04T09:48:04.210Z,51.69
2023-03-04T09:51:14.646Z,51.39
2023-03-04T09:54:09.784Z,51.67
2023-03-04T09:57:14.098Z,51.74
2023-03-04T10:00:08.141Z,51.53
2023-03-04T10:03:12.103Z,51.05
2023-03-04T10:06:02.733Z,51.11
2023-03-04T10:08:58.217Z,51.36
2023-03-04T10:12:10.302Z,51.78
2023-03-04T10:15:05.749Z,51.55
2023-03-04T10:17:56.988Z,51.33
2023-03-04T10:21:06.470Z,52.00
2023-03-04T10:23:54.374Z,51.47
2023-03-04T10:26:42.897Z,51.36
2023-03-04T10:29:30.665Z,51.29
2023-03-04T10:32:18.573Z,51.20
2023-03-04T10:35:09.306Z,50.90
2023-03-04T10:37:55.180Z,51.08
2023-03-04T10:40:42.157Z,51.42
2023-03-04T10:43:28.332Z,51.19
2023-03-04T10:46:15.703Z,50.59
2023-03-04T10:49:01.727Z,50.88
2023-03-04T10:51:52.895Z,50.68
2023-03-04T10:54:48.013Z,50.49
2023-03-04T10:57:39.147Z,50.81
2023-03-04T11:00:32.097Z,50.94
2023-03-04T11:03:17.926Z,51.03
2023-03-04T11:06:12.211Z,50.58
2023-03-04T11:08:59.769Z,50.65
2023-03-04T11:11:46.184Z,50.38
2023-03-04T11:14:39.062Z,50.48
2023-03-04T11:17:27.953Z,50.67
2023-03-04T11:20:32.398Z,50.30
2023-03-04T11:23:25.460Z,49.79
2023-03-04T11:26:16.658Z,50.26
2023-03-04T11:29:13.319Z,50.01
2023-03-04T11:32:13.806Z,49.76
2023-03-04T11:35:38.404Z,49.45
2023-03-04T11:38:46.881Z,49.76
2023-03-04T11:41:39.993Z,49.45
2023-03-04T11:44:26.060Z,49.28
2023-03-04T11:47:56.139Z,49.90
2023-03-04T11:50:51.840Z,49.21
2023-03-04T11:53:48.041Z,49.68
2023-03-04T11:56:44.034Z,49.60
2023-03-04T11:59:57.766Z,49.43
2023-03-04T12:02:56.153Z,49.25
2023-03-04T12:06:10.141Z,48.81
2023-03-04T12:09:02.389Z,49.29
2023-03-04T12:12:03.856Z,49.10
2023-03-04T12:15:14.891Z,48.95
2023-03-04T12:18:12.226Z,49.10
2023-03-04T12:21:13.469Z,48.80
2023-03-04T12:23:59.455Z,48.90
2023-03-04T12:27:21.324Z,48.96
2023-03-04T12:30:20.973Z,48.48
2023-03-04T12:33:21.349Z,48.75
2023-03-04T12:36:32.651Z,48.77
2023-03-04T12:39:42.889Z,48.76
2023-03-04T12:42:36.545Z,48.53
2023-03-04T12:45:33.115Z,48.79
2023-03-04T12:48:33.519Z,48.97
2023-03-04T12:51:22.310Z,48.43
2023-03-04T12:54:18.328Z,48.76
2023-03-04T12:57:14.052Z,48.38
2023-03-04T13:00:19.105Z,48.52
2023-03-04T13:03:20.271Z,48.11
2023-03-04T13:06:16.079Z,48.64
2023-03-04T13:09:07.702Z,48.88
2023-03-04T13:12:16.105Z,48.63
2023-03-04T13:15:08.165Z,48.75
2023-03-04T13:17:56.476Z,48.41
2023-03-04T13:20:42.884Z,48.57
2023-03-04T13:23:29.629Z,48.44
2023-03-04T13:26:23.823Z,48.35
2023-03-04T13:29:29.758Z,48.33
2023-03-04T13:32:36.375Z,48.30
2023-03-04T13:35:47.358Z,48.33
2023-03-04T13:38:38.661Z,48.56
2023-03-04T13:41:31.402Z,48.45
2023-03-04T13:44:43.389Z,48.49
2023-03-04T13:47:41.522Z,48.31
2023-03-04T13:50:30.271Z,48.69
2023-03-04T13:53:39.893Z,48.43
2023-03-04T13:56:37.094Z,48.61
2023-03-04T13:59:35.776Z,48.66
2023-03-04T14:02:25.993Z,49.17
2023-03-04T14:05:12.122Z,48.71
2023-03-04T14:08:17.626Z,48.92
2023-03-04T14:11:04.003Z,48.39
2023-03-04T14:13:49.807Z,48.87
2023-03-04T14:16:41.331Z,48.63
2023-03-04T14:19:39.606Z,48.74
2023-03-04T14:22:40.335Z,48.67
2023-03-04T14:25:29.442Z,48.50
2023-03-04T14:28:17.494Z,48.00
2023-03-04T14:31:03.601Z,48.28
2023-03-04T14:34:01.958Z,47.95
2023-03-04T14:36:48.200Z,48.11
2023-03-04T14:39:37.130Z,48.39
2023-03-04T14:42:26.022Z,47.82
2023-03-04T14:45:14.950Z,47.69
2023-03-04T14:48:05.666Z,47.74
2023-03-04T14:50:55.912Z,47.77
2023-03-04T14:53:54.199Z,47.59
2023-03-04T14:56:44.204Z,47.77
2023-03-04T14:59:36.137Z,47.97
2023-03-04T15:02:31.270Z,47.81
2023-03-04T15:05:26.347Z,47.43
2023-03-04T15:08:36.779Z,48.06
2023-03-04T15:11:25.897Z,47.37
2023-03-04T15:14:50.155Z,47.62
2023-03-04T15:17:39.084Z,48.06
2023-03-04T15:20:27.608Z,47.91
2023-03-04T15:23:14.882Z,47.84
2023-03-04T15:26:02.729Z,48.38
2023-03-04T15:28:48.758Z,48.11
2023-03-04T15:31:34.632Z,48.38
2023-03-04T15:34:21.416Z,48.38
2023-03-04T15:37:09.365Z,48.43
2023-03-04T15:39:57.115Z,48.93
2023-03-04T15:42:42.882Z,48.58
2023-03-04T15:45:36.398Z,48.67
2023-03-04T15:48:22.418Z,48.65
2023-03-04T15:51:17.510Z,48.44
2023-03-04T15:54:03.576Z,48.53
2023-03-04T15:56:49.744Z,48.44
2023-03-04T15:59:35.681Z,48.33
2023-03-04T16:02:24.614Z,48.42
2023-03-04T16:05:10.924Z,48.07
2023-03-04T16:07:56.783Z,48.47
2023-03-04T16:10:43.953Z,48.01
2023-03-04T16:13:30.354Z,47.94
2023-03-04T16:16:16.960Z,47.97
2023-03-04T16:19:02.649Z,48.07
2023-03-04T16:21:48.710Z,48.31
2023-03-04T16:24:35.080Z,48.46
2023-03-04T16:27:22.362Z,48.15
2023-03-04T16:30:13.237Z,48.01
2023-03-04T16:32:59.169Z,48.16
2023-03-04T16:35:45.764Z,48.02
2023-03-04T16:38:34.534Z,47.86
2023-03-04T16:41:24.494Z,47.44
2023-03-04T16:44:14.152Z,48.10
2023-03-04T16:47:00.261Z,48.09
2023-03-04T16:49:47.792Z,47.99
2023-03-04T16:52:33.912Z,47.85
2023-03-04T16:55:23.243Z,47.94
2023-03-04T16:58:09.979Z,47.92
2023-03-04T17:00:58.560Z,48.62
2023-03-04T17:03:44.928Z,48.12
2023-03-04T17:06:31.092Z,48.61
2023-03-04T17:09:16.840Z,48.26
2023-03-04T17:12:02.823Z,48.46
2023-03-04T17:14:48.724Z,48.04
2023-03-04T17:17:34.492Z,48.28
2023-03-04T17:20:20.465Z,48.85
2023-03-04T17:23:06.741Z,48.31
2023-03-04T17:25:57.665Z,48.32
2023-03-04T17:28:43.648Z,48.57
2023-03-04T17:31:29.395Z,48.27
2023-03-04T17:34:15.261Z,48.39
2023-03-04T17:37:01.506Z,48.53
2023-03-04T17:39:47.432Z,48.56
2023-03-04T17:42:33.685Z,48.46
2023-03-04T17:45:19.628Z,48.17
2023-03-04T17:48:06.358Z,47.97
2023-03-04T17:50:52.758Z,48.08
2023-03-04T17:53:39.215Z,48.17
2023-03-04T17:56:30.083Z,47.95
2023-03-04T17:59:17.422Z,48.64
2023-03-04T18:02:05.054Z,48.44
2023-03-04T18:04:50.963Z,48.32
2023-03-04T18:07:36.840Z,48.40
2023-03-04T18:10:22.598Z,48.45
2023-03-04T18:13:08.739Z,48.04
2023-03-04T18:15:55.536Z,48.40
2023-03-04T18:18:41.701Z,48.28
2023-03-04T18:21:29.056Z,48.09
2023-03-04T18:24:15.159Z,48.17
2023-03-04T18:27:00.866Z,48.66
2023-03-04T18:29:47.043Z,48.29
2023-03-04T18:32:49.510Z,48.45
2023-03-04T18:35:37.462Z,48.59
2023-03-04T18:38:24.205Z,48.74
2023-03-04T18:41:12.496Z,48.35
2023-03-04T18:43:58.719Z,48.96
2023-03-04T18:46:47.638Z,48.83
2023-03-04T18:49:34.250Z,48.52
2023-03-04T18:52:20.235Z,48.59
2023-03-04T18:55:06.660Z,48.95
2023-03-04T18:57:55.039Z,48.95
2023-03-04T19:00:41.140Z,48.78
2023-03-04T19:03:32.171Z,48.54
2023-03-04T19:06:18.722Z,48.65
2023-03-04T19:09:05.933Z,48.30
2023-03-04T19:11:52.118Z,48.68
2023-03-04T19:14:38.116Z,48.69
2023-03-04T19:17:25.741Z,48.84
2023-03-04T19:20:14.901Z,48.52
2023-03-04T19:23:09.283Z,48.75
2023-03-04T19:25:55.723Z,48.41
2023-03-04T19:28:42.401Z,48.71
2023-03-04T19:31:28.576Z,48.68
2023-03-04T19:34:14.719Z,48.55
2023-03-04T19:37:00.567Z,48.60
2023-03-04T19:39:46.587Z,49.00
2023-03-04T19:42:34.197Z,48.81
2023-03-04T19:45:20.079Z,48.94
2023-03-04T19:48:06.371Z,48.64
2023-03-04T19:50:52.792Z,48.73
2023-03-04T19:53:38.881Z,48.52
2023-03-04T19:56:25.070Z,48.10
2023-03-04T19:59:11.293Z,48.88
2023-03-04T20:01:57.231Z,48.89
2023-03-04T20:04:43.187Z,48.56
2023-03-04T20:07:28.967Z,49.22
2023-03-04T20:10:15.679Z,48.87
2023-03-04T20:13:01.884Z,48.70
2023-03-04T20:15:47.865Z,49.17
2023-03-04T20:18:34.762Z,49.10
2023-03-04T20:21:21.274Z,49.28
2023-03-04T20:24:07.968Z,48.69
2023-03-04T20:26:54.173Z,48.80
2023-03-04T20:29:40.440Z,49.10
2023-03-04T20:32:26.718Z,49.18
2023-03-04T20:35:15.297Z,49.29
2023-03-04T20:38:01.370Z,49.38
2023-03-04T20:40:47.229Z,49.09
2023-03-04T20:43:33.513Z,49.07
2023-03-04T20:46:45.378Z,49.45
2023-03-04T20:49:31.379Z,49.36
2023-03-04T20:52:18.910Z,49.15
2023-03-04T20:55:05.629Z,49.21
2023-03-04T20:57:51.504Z,49.22
2023-03-04T21:00:38.411Z,49.43
2023-03-04T21:03:24.243Z,49.37
2023-03-04T21:06:13.187Z,49.77
2023-03-04T21:09:05.644Z,49.45
2023-03-04T21:11:51.972Z,49.47
2023-03-04T21:14:40.921Z,49.72
2023-03-04T21:17:26.971Z,50.27
2023-03-04T21:20:15.306Z,49.79
2023-03-04T21:23:01.437Z,49.59
2023-03-04T21:25:48.798Z,49.62
2023-03-04T21:28:34.544Z,49.27
2023-03-04T21:31:23.400Z,49.80
2023-03-04T21:34:23.378Z,49.75
2023-03-04T21:37:10.229Z,49.68
2023-03-04T21:39:56.521Z,49.24
2023-03-04T21:42:45.988Z,49.67
2023-03-04T21:45:33.091Z,49.22
2023-03-04T21:48:21.038Z,49.69
2023-03-04T21:51:08.574Z,49.88
2023-03-04T21:53:55.086Z,49.43
2023-03-04T21:56:42.066Z,49.72
2023-03-04T21:59:28.494Z,49.75
2023-03-04T22:02:19.550Z,49.64
2023-03-04T22:05:06.627Z,49.82
2023-03-04T22:07:52.680Z,49.56
2023-03-04T22:10:40.748Z,49.63
2023-03-04T22:13:26.811Z,49.49
2023-03-04T22:16:12.957Z,49.33
2023-03-04T22:18:59.522Z,49.26
2023-03-04T22:21:46.071Z,49.60
2023-03-04T22:24:32.632Z,49.73
2023-03-04T22:27:19.060Z,49.88
2023-03-04T22:30:08.848Z,50.05
2023-03-04T22:32:54.968Z,49.46
2023-03-04T22:35:41.494Z,50.02
2023-03-04T22:38:28.215Z,49.96
2023-03-04T22:41:16.909Z,49.59
2023-03-04T22:44:04.805Z,49.42
2023-03-04T22:46:50.719Z,49.42
2023-03-04T22:49:37.868Z,49.61
2023-03-04T22:52:23.928Z,49.75
2023-03-04T22:55:12.069Z,49.43
2023-03-04T22:57:58.080Z,49.72
2023-03-04T23:00:44.022Z,49.93
2023-03-04T23:03:33.062Z,49.69
2023-03-04T23:06:26.228Z,49.74
2023-03-04T23:09:12.520Z,49.72
2023-03-04T23:11:58.296Z,49.77
2023-03-04T23:14:44.908Z,49.67
2023-03-04T23:17:31.008Z,49.72
2023-03-04T23:20:18.979Z,50.04
2023-03-04T23:23:04.902Z,49.52
2023-03-04T23:25:52.137Z,49.33
2023-03-04T23:28:37.924Z,50.09
2023-03-04T23:31:24.342Z,49.95
2023-03-04T23:34:11.405Z,49.58
2023-03-04T23:36:57.420Z,49.90
2023-03-04T23:39:43.333Z,50.12
2023-03-04T23:42:29.084Z,49.56
2023-03-04T23:45:15.109Z,49.70
2023-03-04T23:48:01.104Z,49.54
2023-03-04T23:50:52.088Z,49.99
2023-03-04T23:53:39.190Z,49.32
2023-03-04T23:56:27.822Z,49.81
2023-03-04T23:59:13.859Z,50.04
